South Branch, MI

4:57 PM EDT on August 29, 2014 (GMT -0400)
Rose Township | Change Station
CLOSE
Current Station
Personal Weather Station
Location: Lupton, MI
Elevation: 922 ft
Nearby Weather Stations

Elev 922 ft 44.43 °N, 84.01 °W | Updated 6 seconds ago

Overcast
Overcast
72.3 °F
Feels Like 72.3 °F
N
0.0
Wind Variable Wind from East
Gusts 0.0 mph

Today
High -- | Low -- °F
--% Chance of Precip.
Yesterday
High -- | Low -- °F
Precip. -- in
6:54 AM 8:17 PM
Waxing Crescent, 16% visible
Pressure 30.03 in
Visibility 10.0 miles
Clouds Mostly Cloudy 3600 ft
Overcast 5000 ft
Dew Point 70 °F
Humidity 91%
Rainfall 0.02 in
Snow Depth Not available.
UV 1 out of 12
Pollen 6.30 out of 12
Ozone Good
PM2.5 Good
Flu Activity Not available.
METAR KOSC 292033Z AUTO 13005KT 10SM BKN036 OVC050 20/16 A3003 RMK AO2 T01990165

More Conditions Fewer Conditions

Pressure 30.03 in
Visibility 10.0 miles
Clouds Mostly Cloudy 3600 ft
Overcast 5000 ft
Dew Point 70 °F
Humidity 91%
Rainfall 0.02 in
Snow Depth Not available.
UV 1 out of 12
Pollen 6.30 out of 12
Ozone Good
PM2.5 Good
Flu Activity Not available.
METAR KOSC 292033Z AUTO 13005KT 10SM BKN036 OVC050 20/16 A3003 RMK AO2 T01990165

More Conditions Fewer Conditions

Nowcast | as of 4:00 PM EDT on August 29, 2014

At 5 PM...mostly cloudy. Chance of thunderstorms. Temperature 71. South winds 8 mph. At 7 PM...mostly cloudy. Chance of thunderstorms. Temperature 70. South winds 8 mph. At 9 PM...mostly cloudy. Chance of thunderstorms. Temperature 67. South winds 8 mph. At 11 PM...mostly cloudy. Chance of thunderstorms. Temperature 66. South winds 8 mph.

×

10-Day Weather Forecast

Almanac

Astronomy

Aug. 29, 2014 Rise Set
Actual Time 6:54 AM EDT 8:17 PM EDT
Civil Twilight 6:24 AM EDT 8:47 PM EDT
Nautical Twilight 5:48 AM EDT 9:23 PM EDT
Astronomical Twilight 5:09 AM EDT 10:02 PM EDT
Moon 10:53 AM EDT 10:03 PM EDT
Length of Visible Light 14h 23m
Length of Day
13h 22m
Tomorrow will be 2m 57s shorter.
Waxing Crescent, 16% of the Moon is Illuminated
Today
Waxing Crescent
Sep 2
First Quarter
Sep 8
Full
Sep 15
Last Quarter
Sep 24
New

Today's Extremes

State Highs State Lows

Community

WunderPhotos

Upload Photos

1,748,345 photos uploaded!

Nearby

Air Quality

  Air Quality AQ Index Pollutant
Yesterday Good
OZONE
Yesterday Good
PM2.5
Current Good
PM2.5
Current Good
OZONE
Friday Good
OZONE
Friday Good
PM2.5
Saturday Good
OZONE
Saturday Good
PM2.5
Sunday Good
OZONE
Sunday Good
PM2.5
Monday Good
OZONE
Monday Good
PM2.5
Tuesday Good
OZONE
Tuesday Good
PM2.5

Snow Depth

Station Depth Elevation
No new snow has been reported.

Earthquake Activity

City Distance Mag. Time & Date
No recent earthquake activity has been reported nearby.
Minimum magnitude displayed is 2.5.

Coastal Water Temperatures

Place Temperature
Alpena, MI 62.1 °F

Nearby Weather Stations